sensor_id;sensor_type;location;lat;lon;timestamp;pressure;altitude;pressure_sealevel;temperature;humidity
9439;BME280;5176;42.622;25.386;2023-04-15T00:00:29;96519.75;;;13.09;100.00
9439;BME280;5176;42.622;25.386;2023-04-15T00:02:59;96514.19;;;13.02;100.00
9439;BME280;5176;42.622;25.386;2023-04-15T00:05:29;96477.13;;;13.15;100.00
9439;BME280;5176;42.622;25.386;2023-04-15T00:07:59;96484.53;;;13.21;100.00
9439;BME280;5176;42.622;25.386;2023-04-15T00:10:28;96483.88;;;13.29;100.00
9439;BME280;5176;42.622;25.386;2023-04-15T00:12:58;96506.91;;;13.36;100.00
9439;BME280;5176;42.622;25.386;2023-04-15T00:15:27;96489.41;;;13.26;100.00
9439;BME280;5176;42.622;25.386;2023-04-15T00:17:55;96506.91;;;13.36;100.00
9439;BME280;5176;42.622;25.386;2023-04-15T00:20:24;96498.31;;;13.34;100.00
9439;BME280;5176;42.622;25.386;2023-04-15T00:22:53;96483.78;;;13.40;100.00
9439;BME280;5176;42.622;25.386;2023-04-15T00:25:22;96488.53;;;13.46;100.00
9439;BME280;5176;42.622;25.386;2023-04-15T00:27:51;96498.75;;;13.40;100.00
9439;BME280;5176;42.622;25.386;2023-04-15T00:30:22;96517.56;;;13.35;100.00
9439;BME280;5176;42.622;25.386;2023-04-15T00:32:51;96549.44;;;13.42;100.00
9439;BME280;5176;42.622;25.386;2023-04-15T00:35:20;96564.16;;;13.44;100.00
9439;BME280;5176;42.622;25.386;2023-04-15T00:37:50;96555.41;;;13.44;100.00
9439;BME280;5176;42.622;25.386;2023-04-15T00:40:20;96541.94;;;13.37;100.00
9439;BME280;5176;42.622;25.386;2023-04-15T00:42:50;96524.97;;;13.20;100.00
9439;BME280;5176;42.622;25.386;2023-04-15T00:45:21;96488.81;;;12.92;100.00
9439;BME280;5176;42.622;25.386;2023-04-15T00:47:50;96466.56;;;12.75;100.00
9439;BME280;5176;42.622;25.386;2023-04-15T00:50:18;96445.16;;;12.59;100.00
9439;BME280;5176;42.622;25.386;2023-04-15T00:52:47;96455.78;;;12.57;100.00
9439;BME280;5176;42.622;25.386;2023-04-15T00:55:16;96469.66;;;12.59;100.00
9439;BME280;5176;42.622;25.386;2023-04-15T00:57:45;96509.59;;;12.53;100.00
9439;BME280;5176;42.622;25.386;2023-04-15T01:00:14;96529.94;;;12.51;100.00
9439;BME280;5176;42.622;25.386;2023-04-15T01:02:44;96541.28;;;12.51;100.00
9439;BME280;5176;42.622;25.386;2023-04-15T01:05:13;96532.34;;;12.64;100.00
9439;BME280;5176;42.622;25.386;2023-04-15T01:07:45;96546.28;;;12.54;100.00
9439;BME280;5176;42.622;25.386;2023-04-15T01:10:14;96526.06;;;12.55;100.00
9439;BME280;5176;42.622;25.386;2023-04-15T01:12:42;96520.16;;;12.63;100.00
9439;BME280;5176;42.622;25.386;2023-04-15T01:15:11;96500.88;;;12.73;100.00
9439;BME280;5176;42.622;25.386;2023-04-15T01:17:40;96496.50;;;12.83;100.00
9439;BME280;5176;42.622;25.386;2023-04-15T01:20:10;96501.50;;;12.87;100.00
9439;BME280;5176;42.622;25.386;2023-04-15T01:22:41;96500.81;;;12.85;100.00
9439;BME280;5176;42.622;25.386;2023-04-15T01:25:13;96469.50;;;12.81;100.00
9439;BME280;5176;42.622;25.386;2023-04-15T01:27:46;96462.72;;;12.79;100.00
9439;BME280;5176;42.622;25.386;2023-04-15T01:30:15;96463.72;;;12.88;100.00
9439;BME280;5176;42.622;25.386;2023-04-15T01:32:44;96474.69;;;12.93;100.00
9439;BME280;5176;42.622;25.386;2023-04-15T01:35:12;96486.03;;;12.93;100.00
9439;BME280;5176;42.622;25.386;2023-04-15T01:37:41;96501.31;;;12.99;100.00
9439;BME280;5176;42.622;25.386;2023-04-15T01:40:10;96514.47;;;12.99;100.00
9439;BME280;5176;42.622;25.386;2023-04-15T01:42:39;96519.34;;;13.04;100.00
9439;BME280;5176;42.622;25.386;2023-04-15T01:45:11;96513.81;;;13.07;100.00
9439;BME280;5176;42.622;25.386;2023-04-15T01:47:40;96514.63;;;13.07;100.00
9439;BME280;5176;42.622;25.386;2023-04-15T01:50:09;96511.88;;;13.09;100.00
9439;BME280;5176;42.622;25.386;2023-04-15T01:52:39;96516.06;;;13.12;100.00
9439;BME280;5176;42.622;25.386;2023-04-15T01:55:09;96522.16;;;13.12;100.00
9439;BME280;5176;42.622;25.386;2023-04-15T01:57:38;96524.19;;;13.08;100.00
9439;BME280;5176;42.622;25.386;2023-04-15T02:00:08;96526.00;;;13.08;100.00
9439;BME280;5176;42.622;25.386;2023-04-15T02:02:39;96520.03;;;13.06;100.00
9439;BME280;5176;42.622;25.386;2023-04-15T02:05:08;96518.22;;;13.06;100.00
9439;BME280;5176;42.622;25.386;2023-04-15T02:07:38;96507.03;;;13.04;100.00
9439;BME280;5176;42.622;25.386;2023-04-15T02:10:07;96496.59;;;13.03;100.00
9439;BME280;5176;42.622;25.386;2023-04-15T02:12:36;96488.31;;;13.07;100.00
9439;BME280;5176;42.622;25.386;2023-04-15T02:15:06;96486.06;;;13.03;100.00
9439;BME280;5176;42.622;25.386;2023-04-15T02:17:37;96509.34;;;12.98;100.00
9439;BME280;5176;42.622;25.386;2023-04-15T02:20:08;96531.22;;;12.98;100.00
9439;BME280;5176;42.622;25.386;2023-04-15T02:22:37;96547.25;;;12.95;100.00
9439;BME280;5176;42.622;25.386;2023-04-15T02:25:07;96550.59;;;12.97;100.00
9439;BME280;5176;42.622;25.386;2023-04-15T02:27:36;96551.81;;;12.93;100.00
9439;BME280;5176;42.622;25.386;2023-04-15T02:30:06;96564.31;;;12.80;100.00
9439;BME280;5176;42.622;25.386;2023-04-15T02:32:35;96565.19;;;12.69;100.00
9439;BME280;5176;42.622;25.386;2023-04-15T02:35:08;96575.06;;;12.56;100.00
9439;BME280;5176;42.622;25.386;2023-04-15T02:37:36;96569.69;;;12.58;100.00
9439;BME280;5176;42.622;25.386;2023-04-15T02:40:10;96561.81;;;12.58;100.00
9439;BME280;5176;42.622;25.386;2023-04-15T02:42:39;96559.78;;;12.50;100.00
9439;BME280;5176;42.622;25.386;2023-04-15T02:45:09;96556.75;;;12.34;100.00
9439;BME280;5176;42.622;25.386;2023-04-15T02:47:38;96543.00;;;12.30;100.00
9439;BME280;5176;42.622;25.386;2023-04-15T02:50:10;96542.78;;;12.33;100.00
9439;BME280;5176;42.622;25.386;2023-04-15T02:52:39;96553.75;;;12.38;100.00
9439;BME280;5176;42.622;25.386;2023-04-15T02:55:09;96543.34;;;12.37;100.00
9439;BME280;5176;42.622;25.386;2023-04-15T02:57:37;96522.91;;;12.40;100.00
9439;BME280;5176;42.622;25.386;2023-04-15T03:00:07;96518.00;;;12.47;100.00
9439;BME280;5176;42.622;25.386;2023-04-15T03:02:38;96503.56;;;12.41;100.00
9439;BME280;5176;42.622;25.386;2023-04-15T03:05:12;96498.00;;;12.23;100.00
9439;BME280;5176;42.622;25.386;2023-04-15T03:07:41;96518.00;;;12.15;100.00
9439;BME280;5176;42.622;25.386;2023-04-15T03:10:10;96533.03;;;12.24;100.00
9439;BME280;5176;42.622;25.386;2023-04-15T03:12:38;96530.00;;;12.28;100.00
9439;BME280;5176;42.622;25.386;2023-04-15T03:15:08;96520.16;;;12.42;100.00
9439;BME280;5176;42.622;25.386;2023-04-15T03:17:37;96529.81;;;12.52;100.00
9439;BME280;5176;42.622;25.386;2023-04-15T03:20:06;96537.03;;;12.60;100.00
9439;BME280;5176;42.622;25.386;2023-04-15T03:22:37;96526.25;;;12.63;100.00
9439;BME280;5176;42.622;25.386;2023-04-15T03:25:06;96518.06;;;12.57;100.00
9439;BME280;5176;42.622;25.386;2023-04-15T03:27:35;96522.59;;;12.54;100.00
9439;BME280;5176;42.622;25.386;2023-04-15T03:30:04;96519.28;;;12.52;100.00
9439;BME280;5176;42.622;25.386;2023-04-15T03:32:33;96522.59;;;12.54;100.00
9439;BME280;5176;42.622;25.386;2023-04-15T03:35:03;96528.97;;;12.52;100.00
9439;BME280;5176;42.622;25.386;2023-04-15T03:37:32;96532.88;;;12.58;100.00
9439;BME280;5176;42.622;25.386;2023-04-15T03:40:02;96553.91;;;12.58;100.00
9439;BME280;5176;42.622;25.386;2023-04-15T03:42:31;96557.47;;;12.57;100.00
9439;BME280;5176;42.622;25.386;2023-04-15T03:44:59;96540.13;;;12.44;100.00
9439;BME280;5176;42.622;25.386;2023-04-15T03:47:28;96556.78;;;12.54;100.00
9439;BME280;5176;42.622;25.386;2023-04-15T03:49:57;96563.13;;;12.52;100.00
9439;BME280;5176;42.622;25.386;2023-04-15T03:52:26;96563.13;;;12.52;100.00
9439;BME280;5176;42.622;25.386;2023-04-15T03:54:55;96564.34;;;12.48;100.00
9439;BME280;5176;42.622;25.386;2023-04-15T03:57:25;96562.97;;;12.33;100.00
9439;BME280;5176;42.622;25.386;2023-04-15T03:59:53;96572.44;;;12.24;100.00
9439;BME280;5176;42.622;25.386;2023-04-15T04:02:22;96570.19;;;12.19;100.00
9439;BME280;5176;42.622;25.386;2023-04-15T04:04:51;96566.00;;;12.17;100.00
9439;BME280;5176;42.622;25.386;2023-04-15T04:07:19;96569.16;;;11.99;100.00
9439;BME280;5176;42.622;25.386;2023-04-15T04:09:50;96593.75;;;11.98;100.00
9439;BME280;5176;42.622;25.386;2023-04-15T04:12:19;96606.63;;;12.02;100.00
9439;BME280;5176;42.622;25.386;2023-04-15T04:14:49;96627.16;;;11.96;100.00
9439;BME280;5176;42.622;25.386;2023-04-15T04:17:18;96636.00;;;12.07;100.00
9439;BME280;5176;42.622;25.386;2023-04-15T04:19:46;96641.25;;;12.18;100.00
9439;BME280;5176;42.622;25.386;2023-04-15T04:22:15;96642.16;;;12.28;100.00
9439;BME280;5176;42.622;25.386;2023-04-15T04:24:43;96640.59;;;12.37;100.00
9439;BME280;5176;42.622;25.386;2023-04-15T04:27:12;96635.69;;;12.43;100.00
9439;BME280;5176;42.622;25.386;2023-04-15T04:29:40;96634.97;;;12.41;100.00
9439;BME280;5176;42.622;25.386;2023-04-15T04:32:11;96642.66;;;12.33;100.00
9439;BME280;5176;42.622;25.386;2023-04-15T04:34:40;96644.66;;;12.30;100.00
9439;BME280;5176;42.622;25.386;2023-04-15T04:37:08;96647.56;;;12.15;100.00
9439;BME280;5176;42.622;25.386;2023-04-15T04:39:37;96642.69;;;12.11;100.00
9439;BME280;5176;42.622;25.386;2023-04-15T04:42:05;96646.25;;;12.10;100.00
9439;BME280;5176;42.622;25.386;2023-04-15T04:44:34;96644.47;;;12.10;100.00
9439;BME280;5176;42.622;25.386;2023-04-15T04:47:03;96633.97;;;12.10;100.00
9439;BME280;5176;42.622;25.386;2023-04-15T04:49:52;96619.63;;;12.03;100.00
9439;BME280;5176;42.622;25.386;2023-04-15T04:52:20;96622.53;;;12.00;100.00
9439;BME280;5176;42.622;25.386;2023-04-15T04:55:03;96620.25;;;11.95;100.00
9439;BME280;5176;42.622;25.386;2023-04-15T04:57:32;96629.22;;;11.93;100.00
9439;BME280;5176;42.622;25.386;2023-04-15T05:00:02;96635.19;;;11.95;100.00
9439;BME280;5176;42.622;25.386;2023-04-15T05:02:31;96624.19;;;12.01;100.00
9439;BME280;5176;42.622;25.386;2023-04-15T05:05:01;96629.56;;;11.99;100.00
9439;BME280;5176;42.622;25.386;2023-04-15T05:07:31;96624.19;;;12.01;100.00
9439;BME280;5176;42.622;25.386;2023-04-15T05:10:00;96617.28;;;12.00;100.00
9439;BME280;5176;42.622;25.386;2023-04-15T05:12:30;96596.25;;;12.11;100.00
9439;BME280;5176;42.622;25.386;2023-04-15T05:14:58;96587.34;;;12.23;100.00
9439;BME280;5176;42.622;25.386;2023-04-15T05:17:27;96588.66;;;12.29;100.00
9439;BME280;5176;42.622;25.386;2023-04-15T05:19:58;96596.78;;;12.37;100.00
9439;BME280;5176;42.622;25.386;2023-04-15T05:22:28;96587.44;;;12.44;100.00
9439;BME280;5176;42.622;25.386;2023-04-15T05:24:56;96604.25;;;12.53;100.00
9439;BME280;5176;42.622;25.386;2023-04-15T05:27:25;96601.94;;;12.60;100.00
9439;BME280;5176;42.622;25.386;2023-04-15T05:29:54;96617.91;;;12.68;100.00
9439;BME280;5176;42.622;25.386;2023-04-15T05:32:23;96613.81;;;12.75;100.00
9439;BME280;5176;42.622;25.386;2023-04-15T05:34:52;96613.44;;;12.79;100.00
9439;BME280;5176;42.622;25.386;2023-04-15T05:37:20;96619.03;;;12.86;100.00
9439;BME280;5176;42.622;25.386;2023-04-15T05:39:51;96619.22;;;12.94;100.00
9439;BME280;5176;42.622;25.386;2023-04-15T05:42:20;96624.44;;;13.05;100.00
9439;BME280;5176;42.622;25.386;2023-04-15T05:44:48;96635.28;;;13.12;100.00
9439;BME280;5176;42.622;25.386;2023-04-15T05:47:17;96642.19;;;13.24;100.00
9439;BME280;5176;42.622;25.386;2023-04-15T05:49:46;96640.25;;;13.47;100.00
9439;BME280;5176;42.622;25.386;2023-04-15T05:52:15;96631.56;;;13.56;100.00
9439;BME280;5176;42.622;25.386;2023-04-15T05:54:43;96640.19;;;13.58;100.00
9439;BME280;5176;42.622;25.386;2023-04-15T05:57:14;96649.25;;;13.45;100.00
9439;BME280;5176;42.622;25.386;2023-04-15T05:59:42;96648.53;;;13.43;100.00
9439;BME280;5176;42.622;25.386;2023-04-15T06:02:11;96647.75;;;13.52;100.00
9439;BME280;5176;42.622;25.386;2023-04-15T06:04:40;96654.34;;;13.67;100.00
9439;BME280;5176;42.622;25.386;2023-04-15T06:07:09;96658.94;;;13.75;100.00
9439;BME280;5176;42.622;25.386;2023-04-15T06:09:39;96654.66;;;13.74;100.00
9439;BME280;5176;42.622;25.386;2023-04-15T06:12:07;96664.28;;;13.84;100.00
9439;BME280;5176;42.622;25.386;2023-04-15T06:14:39;96676.59;;;13.84;100.00
9439;BME280;5176;42.622;25.386;2023-04-15T06:17:08;96679.78;;;13.78;100.00
9439;BME280;5176;42.622;25.386;2023-04-15T06:19:37;96681.00;;;13.74;100.00
9439;BME280;5176;42.622;25.386;2023-04-15T06:22:06;96689.41;;;13.68;100.00
9439;BME280;5176;42.622;25.386;2023-04-15T06:24:34;96695.13;;;13.73;100.00
9439;BME280;5176;42.622;25.386;2023-04-15T06:27:03;96696.97;;;13.82;100.00
9439;BME280;5176;42.622;25.386;2023-04-15T06:29:32;96700.19;;;13.85;100.00
9439;BME280;5176;42.622;25.386;2023-04-15T06:35:25;96707.50;;;13.82;100.00
9439;BME280;5176;42.622;25.386;2023-04-15T06:37:54;96702.09;;;13.83;100.00
9439;BME280;5176;42.622;25.386;2023-04-15T06:40:24;96711.25;;;13.79;100.00
9439;BME280;5176;42.622;25.386;2023-04-15T06:42:52;96706.53;;;13.83;100.00
9439;BME280;5176;42.622;25.386;2023-04-15T06:45:21;96711.94;;;13.81;100.00
9439;BME280;5176;42.622;25.386;2023-04-15T06:47:50;96705.88;;;13.90;100.00
9439;BME280;5176;42.622;25.386;2023-04-15T06:50:19;96713.91;;;13.89;100.00
9439;BME280;5176;42.622;25.386;2023-04-15T06:53:07;96716.97;;;13.84;100.00
9439;BME280;5176;42.622;25.386;2023-04-15T06:55:35;96726.22;;;13.79;100.00
9439;BME280;5176;42.622;25.386;2023-04-15T06:58:04;96729.38;;;13.73;100.00
9439;BME280;5176;42.622;25.386;2023-04-15T07:00:33;96744.44;;;13.71;100.00
9439;BME280;5176;42.622;25.386;2023-04-15T07:03:01;96740.44;;;13.67;100.00
9439;BME280;5176;42.622;25.386;2023-04-15T07:05:30;96749.63;;;13.72;100.00
9439;BME280;5176;42.622;25.386;2023-04-15T07:07:59;96748.56;;;13.63;100.00
9439;BME280;5176;42.622;25.386;2023-04-15T07:10:30;96747.41;;;13.77;100.00
9439;BME280;5176;42.622;25.386;2023-04-15T07:12:59;96743.06;;;13.97;100.00
9439;BME280;5176;42.622;25.386;2023-04-15T07:15:28;96749.34;;;14.27;100.00
9439;BME280;5176;42.622;25.386;2023-04-15T07:17:57;96743.22;;;14.57;100.00
9439;BME280;5176;42.622;25.386;2023-04-15T07:20:26;96742.47;;;14.95;100.00
9439;BME280;5176;42.622;25.386;2023-04-15T07:22:55;96742.47;;;14.95;95.09
9439;BME280;5176;42.622;25.386;2023-04-15T07:25:24;96748.75;;;15.23;93.74
9439;BME280;5176;42.622;25.386;2023-04-15T07:27:54;96745.84;;;15.45;91.13
9439;BME280;5176;42.622;25.386;2023-04-15T07:30:36;96743.47;;;15.52;90.99
9439;BME280;5176;42.622;25.386;2023-04-15T07:33:19;96739.13;;;15.90;91.62
9439;BME280;5176;42.622;25.386;2023-04-15T07:35:48;96749.28;;;15.94;83.88
9439;BME280;5176;42.622;25.386;2023-04-15T07:38:17;96750.72;;;16.26;85.89
9439;BME280;5176;42.622;25.386;2023-04-15T07:40:46;96749.94;;;16.43;82.09
9439;BME280;5176;42.622;25.386;2023-04-15T07:43:17;96748.34;;;16.60;81.76
9439;BME280;5176;42.622;25.386;2023-04-15T07:45:47;96743.28;;;16.94;81.95
9439;BME280;5176;42.622;25.386;2023-04-15T07:48:16;96748.84;;;16.73;76.45
9439;BME280;5176;42.622;25.386;2023-04-15T07:50:49;96748.38;;;17.05;76.48
9439;BME280;5176;42.622;25.386;2023-04-15T07:53:17;96756.41;;;17.13;74.69
9439;BME280;5176;42.622;25.386;2023-04-15T07:55:46;96761.69;;;17.13;77.23
9439;BME280;5176;42.622;25.386;2023-04-15T07:58:16;96756.25;;;17.33;76.96
9439;BME280;5176;42.622;25.386;2023-04-15T08:00:45;96765.63;;;17.63;72.71
9439;BME280;5176;42.622;25.386;2023-04-15T08:03:13;96776.00;;;17.56;71.08
9439;BME280;5176;42.622;25.386;2023-04-15T08:05:43;96774.19;;;17.75;67.69
9439;BME280;5176;42.622;25.386;2023-04-15T08:08:21;96782.25;;;17.91;68.72
9439;BME280;5176;42.622;25.386;2023-04-15T08:10:50;96782.59;;;17.88;68.58
9439;BME280;5176;42.622;25.386;2023-04-15T08:13:20;96777.06;;;17.63;70.44
9439;BME280;5176;42.622;25.386;2023-04-15T08:16:16;96761.09;;;17.37;70.81
9439;BME280;5176;42.622;25.386;2023-04-15T08:18:46;96773.72;;;17.43;72.11
9439;BME280;5176;42.622;25.386;2023-04-15T08:21:16;96773.59;;;17.81;73.30
9439;BME280;5176;42.622;25.386;2023-04-15T08:23:47;96766.78;;;18.04;70.87
9439;BME280;5176;42.622;25.386;2023-04-15T08:26:16;96773.41;;;18.00;71.26
9439;BME280;5176;42.622;25.386;2023-04-15T08:28:48;96768.94;;;17.65;70.33
9439;BME280;5176;42.622;25.386;2023-04-15T08:31:18;96777.78;;;17.91;69.93
9439;BME280;5176;42.622;25.386;2023-04-15T08:33:48;96776.41;;;18.05;68.30
9439;BME280;5176;42.622;25.386;2023-04-15T08:36:18;96773.00;;;18.13;69.68
9439;BME280;5176;42.622;25.386;2023-04-15T08:38:47;96778.06;;;18.32;68.31
9439;BME280;5176;42.622;25.386;2023-04-15T08:41:20;96775.09;;;18.09;66.62
9439;BME280;5176;42.622;25.386;2023-04-15T08:43:56;96775.31;;;17.90;67.90
9439;BME280;5176;42.622;25.386;2023-04-15T08:46:25;96781.44;;;17.90;68.47
9439;BME280;5176;42.622;25.386;2023-04-15T08:48:56;96778.28;;;17.87;68.47
9439;BME280;5176;42.622;25.386;2023-04-15T08:51:26;96777.03;;;18.25;65.23
9439;BME280;5176;42.622;25.386;2023-04-15T08:53:55;96776.78;;;18.10;65.91
9439;BME280;5176;42.622;25.386;2023-04-15T08:56:25;96777.75;;;18.09;66.91
9439;BME280;5176;42.622;25.386;2023-04-15T08:58:56;96781.38;;;18.26;63.35
9439;BME280;5176;42.622;25.386;2023-04-15T09:01:25;96776.38;;;18.57;66.26
9439;BME280;5176;42.622;25.386;2023-04-15T09:03:55;96766.28;;;18.61;66.64
9439;BME280;5176;42.622;25.386;2023-04-15T09:06:25;96763.66;;;18.35;66.81
9439;BME280;5176;42.622;25.386;2023-04-15T09:08:54;96760.47;;;18.65;63.51
9439;BME280;5176;42.622;25.386;2023-04-15T09:11:23;96754.66;;;18.96;64.03
9439;BME280;5176;42.622;25.386;2023-04-15T09:13:52;96745.75;;;19.13;62.08
9439;BME280;5176;42.622;25.386;2023-04-15T09:16:22;96744.06;;;19.12;61.10
9439;BME280;5176;42.622;25.386;2023-04-15T09:18:52;96744.56;;;19.16;60.23
9439;BME280;5176;42.622;25.386;2023-04-15T09:21:22;96743.44;;;19.51;59.31
9439;BME280;5176;42.622;25.386;2023-04-15T09:23:58;96730.19;;;19.75;56.57
9439;BME280;5176;42.622;25.386;2023-04-15T09:26:31;96738.31;;;19.49;57.18
9439;BME280;5176;42.622;25.386;2023-04-15T09:29:04;96744.13;;;19.53;58.66
9439;BME280;5176;42.622;25.386;2023-04-15T09:31:35;96738.13;;;19.26;57.92
9439;BME280;5176;42.622;25.386;2023-04-15T09:34:06;96733.06;;;18.99;57.99
9439;BME280;5176;42.622;25.386;2023-04-15T09:36:51;96733.28;;;19.22;58.21
9439;BME280;5176;42.622;25.386;2023-04-15T09:39:20;96738.06;;;18.94;56.40
9439;BME280;5176;42.622;25.386;2023-04-15T09:42:04;96740.19;;;18.90;54.24
9439;BME280;5176;42.622;25.386;2023-04-15T09:44:35;96742.97;;;18.72;56.12
9439;BME280;5176;42.622;25.386;2023-04-15T09:47:06;96739.91;;;18.59;55.32
9439;BME280;5176;42.622;25.386;2023-04-15T09:49:35;96725.13;;;18.57;55.93
9439;BME280;5176;42.622;25.386;2023-04-15T09:52:04;96721.03;;;18.70;59.24
9439;BME280;5176;42.622;25.386;2023-04-15T09:54:35;96718.13;;;18.90;59.95
9439;BME280;5176;42.622;25.386;2023-04-15T09:57:05;96715.47;;;18.90;57.18
9439;BME280;5176;42.622;25.386;2023-04-15T09:59:34;96726.16;;;19.14;59.99
9439;BME280;5176;42.622;25.386;2023-04-15T10:02:05;96717.34;;;19.22;55.82
9439;BME280;5176;42.622;25.386;2023-04-15T10:04:35;96717.66;;;19.19;54.33
9439;BME280;5176;42.622;25.386;2023-04-15T10:07:08;96711.22;;;19.38;52.29
9439;BME280;5176;42.622;25.386;2023-04-15T10:09:37;96719.88;;;19.56;52.10
9439;BME280;5176;42.622;25.386;2023-04-15T10:12:06;96711.56;;;19.83;50.97
9439;BME280;5176;42.622;25.386;2023-04-15T10:14:37;96713.06;;;19.78;48.02
9439;BME280;5176;42.622;25.386;2023-04-15T10:17:10;96726.56;;;19.60;48.53
9439;BME280;5176;42.622;25.386;2023-04-15T10:19:40;96725.00;;;19.33;50.88
9439;BME280;5176;42.622;25.386;2023-04-15T10:22:09;96713.69;;;19.31;49.62
9439;BME280;5176;42.622;25.386;2023-04-15T10:24:38;96712.72;;;19.56;50.46
9439;BME280;5176;42.622;25.386;2023-04-15T10:27:08;96707.25;;;19.74;47.87
9439;BME280;5176;42.622;25.386;2023-04-15T10:29:38;96712.56;;;19.82;47.04
9439;BME280;5176;42.622;25.386;2023-04-15T10:32:09;96714.56;;;19.89;46.60
9439;BME280;5176;42.622;25.386;2023-04-15T10:34:39;96712.00;;;20.20;47.52
9439;BME280;5176;42.622;25.386;2023-04-15T10:37:09;96698.84;;;20.26;46.24
9439;BME280;5176;42.622;25.386;2023-04-15T10:39:40;96692.56;;;20.66;45.58
9439;BME280;5176;42.622;25.386;2023-04-15T10:42:10;96701.34;;;20.98;45.14
9439;BME280;5176;42.622;25.386;2023-04-15T10:44:42;96698.09;;;20.88;44.73
9439;BME280;5176;42.622;25.386;2023-04-15T10:47:14;96693.09;;;20.85;44.45
9439;BME280;5176;42.622;25.386;2023-04-15T10:49:46;96695.00;;;20.76;44.30
9439;BME280;5176;42.622;25.386;2023-04-15T10:52:16;96691.19;;;21.02;44.39
9439;BME280;5176;42.622;25.386;2023-04-15T10:54:45;96700.91;;;21.17;42.63
9439;BME280;5176;42.622;25.386;2023-04-15T10:57:16;96695.69;;;21.24;42.29
9439;BME280;5176;42.622;25.386;2023-04-15T11:00:12;96694.75;;;21.17;42.14
9439;BME280;5176;42.622;25.386;2023-04-15T11:02:46;96695.44;;;20.88;42.36
9439;BME280;5176;42.622;25.386;2023-04-15T11:05:16;96691.84;;;21.04;42.89
9439;BME280;5176;42.622;25.386;2023-04-15T11:07:49;96690.44;;;21.16;41.63
9439;BME280;5176;42.622;25.386;2023-04-15T11:10:51;96687.97;;;21.06;41.73
9439;BME280;5176;42.622;25.386;2023-04-15T11:13:25;96677.44;;;21.13;42.91
9439;BME280;5176;42.622;25.386;2023-04-15T11:16:00;96676.56;;;21.20;41.92
9439;BME280;5176;42.622;25.386;2023-04-15T11:18:33;96686.19;;;21.30;40.98
9439;BME280;5176;42.622;25.386;2023-04-15T11:21:04;96678.13;;;21.38;41.52
9439;BME280;5176;42.622;25.386;2023-04-15T11:23:35;96674.97;;;21.57;40.62
9439;BME280;5176;42.622;25.386;2023-04-15T11:26:06;96673.13;;;21.58;40.32
9439;BME280;5176;42.622;25.386;2023-04-15T11:28:39;96671.78;;;21.62;40.96
9439;BME280;5176;42.622;25.386;2023-04-15T11:31:09;96669.22;;;21.68;40.80
9439;BME280;5176;42.622;25.386;2023-04-15T11:33:45;96663.66;;;21.55;40.09
9439;BME280;5176;42.622;25.386;2023-04-15T11:36:15;96669.28;;;21.60;37.79
9439;BME280;5176;42.622;25.386;2023-04-15T11:38:46;96658.25;;;21.17;39.62
9439;BME280;5176;42.622;25.386;2023-04-15T11:41:19;96656.22;;;21.19;39.00
9439;BME280;5176;42.622;25.386;2023-04-15T11:43:49;96654.13;;;21.38;40.48
9439;BME280;5176;42.622;25.386;2023-04-15T11:46:18;96658.94;;;21.42;37.65
9439;BME280;5176;42.622;25.386;2023-04-15T11:48:48;96652.44;;;21.60;40.08
9439;BME280;5176;42.622;25.386;2023-04-15T11:51:17;96650.84;;;21.88;40.21
9439;BME280;5176;42.622;25.386;2023-04-15T11:53:49;96656.81;;;21.90;38.32
9439;BME280;5176;42.622;25.386;2023-04-15T11:56:20;96650.88;;;22.18;39.57
9439;BME280;5176;42.622;25.386;2023-04-15T11:58:51;96645.34;;;22.19;38.99
9439;BME280;5176;42.622;25.386;2023-04-15T12:01:20;96646.13;;;21.61;39.20
9439;BME280;5176;42.622;25.386;2023-04-15T12:03:59;96643.38;;;21.46;40.00
9439;BME280;5176;42.622;25.386;2023-04-15T12:06:32;96633.84;;;21.06;39.61
9439;BME280;5176;42.622;25.386;2023-04-15T12:09:11;96643.63;;;20.90;40.39
9439;BME280;5176;42.622;25.386;2023-04-15T12:11:43;96636.16;;;20.86;41.06
9439;BME280;5176;42.622;25.386;2023-04-15T12:14:17;96627.09;;;20.72;41.05
9439;BME280;5176;42.622;25.386;2023-04-15T12:16:46;96636.72;;;20.42;42.00
9439;BME280;5176;42.622;25.386;2023-04-15T12:19:23;96630.56;;;20.41;41.60
9439;BME280;5176;42.622;25.386;2023-04-15T12:21:55;96635.38;;;20.07;41.92
9439;BME280;5176;42.622;25.386;2023-04-15T12:24:25;96631.41;;;20.03;42.54
9439;BME280;5176;42.622;25.386;2023-04-15T12:26:54;96636.00;;;20.17;41.70
9439;BME280;5176;42.622;25.386;2023-04-15T12:29:26;96627.78;;;20.35;41.26
9439;BME280;5176;42.622;25.386;2023-04-15T12:31:56;96630.94;;;20.30;41.42
9439;BME280;5176;42.622;25.386;2023-04-15T12:34:27;96624.06;;;20.05;42.15
9439;BME280;5176;42.622;25.386;2023-04-15T12:36:57;96632.25;;;19.95;43.02
9439;BME280;5176;42.622;25.386;2023-04-15T12:39:27;96630.75;;;20.01;43.10
9439;BME280;5176;42.622;25.386;2023-04-15T12:41:56;96629.06;;;20.08;42.58
9439;BME280;5176;42.622;25.386;2023-04-15T12:44:24;96625.97;;;19.88;42.63
9439;BME280;5176;42.622;25.386;2023-04-15T12:46:53;96620.00;;;19.78;43.03
9439;BME280;5176;42.622;25.386;2023-04-15T12:49:23;96621.25;;;19.98;43.51
9439;BME280;5176;42.622;25.386;2023-04-15T12:51:56;96633.38;;;20.09;43.64
9439;BME280;5176;42.622;25.386;2023-04-15T12:54:26;96636.22;;;20.07;43.85
9439;BME280;5176;42.622;25.386;2023-04-15T12:56:55;96620.72;;;20.11;43.15
9439;BME280;5176;42.622;25.386;2023-04-15T12:59:24;96622.38;;;20.12;43.32
9439;BME280;5176;42.622;25.386;2023-04-15T13:01:53;96615.88;;;20.14;42.45
9439;BME280;5176;42.622;25.386;2023-04-15T13:04:21;96618.91;;;20.03;41.81
9439;BME280;5176;42.622;25.386;2023-04-15T13:06:50;96618.09;;;20.03;42.59
9439;BME280;5176;42.622;25.386;2023-04-15T13:09:20;96622.50;;;20.27;41.97
9439;BME280;5176;42.622;25.386;2023-04-15T13:11:49;96614.06;;;20.54;41.33
9439;BME280;5176;42.622;25.386;2023-04-15T13:14:19;96613.94;;;20.48;40.52
9439;BME280;5176;42.622;25.386;2023-04-15T13:16:48;96612.13;;;20.40;39.22
9439;BME280;5176;42.622;25.386;2023-04-15T13:19:17;96616.94;;;20.45;39.21
9439;BME280;5176;42.622;25.386;2023-04-15T13:21:45;96611.81;;;20.35;38.44
9439;BME280;5176;42.622;25.386;2023-04-15T13:24:14;96611.69;;;20.28;38.24